Time;durP1;ratioP1;P1;durP2;ratioP2;P2;SDS_P1;SDS_P2;PMS_P1;PMS_P2;Temp;Humidity;BMP_temperature;BMP_pressure;BME280_temperature;BME280_humidity;BME280_pressure;Samples;Min_cycle;Max_cycle;Signal;HPM_P1;HPM_P2
2022/04/28 00:00:20;;;;;;;11.07;4.50;;;5.00;88.40;;;;;;5101141;28;20228;-76
2022/04/28 00:02:49;;;;;;;9.40;4.20;;;5.00;88.70;;;;;;5104576;28;20238;-77
2022/04/28 00:05:16;;;;;;;12.33;4.20;;;4.90;89.90;;;;;;5098349;28;20710;-76
2022/04/28 00:07:43;;;;;;;8.67;4.20;;;4.90;89.50;;;;;;5100578;28;20713;-76
2022/04/28 00:10:11;;;;;;;8.73;4.40;;;4.90;89.90;;;;;;5095597;27;21791;-77
2022/04/28 00:12:38;;;;;;;8.53;4.50;;;4.80;89.80;;;;;;5094287;28;20298;-77
2022/04/28 00:15:06;;;;;;;11.97;4.53;;;4.80;89.80;;;;;;5103743;27;20248;-76
2022/04/28 00:17:33;;;;;;;16.40;5.10;;;4.70;90.20;;;;;;5101130;28;20271;-77
2022/04/28 00:20:01;;;;;;;8.20;4.50;;;4.70;90.60;;;;;;5102164;28;20213;-77
2022/04/28 00:22:29;;;;;;;5.93;3.70;;;4.60;90.80;;;;;;5097022;27;20317;-77
2022/04/28 00:24:56;;;;;;;7.07;4.27;;;4.60;90.70;;;;;;5102253;27;20244;-77
2022/04/28 00:27:23;;;;;;;10.40;4.37;;;4.60;90.70;;;;;;5099825;27;20317;-76
2022/04/28 00:29:50;;;;;;;9.33;4.07;;;4.50;91.00;;;;;;5097831;28;20228;-77
2022/04/28 00:32:16;;;;;;;9.20;4.57;;;4.50;91.30;;;;;;5101631;28;20229;-77
2022/04/28 00:34:43;;;;;;;7.93;4.17;;;4.40;91.40;;;;;;5104346;27;20236;-76
2022/04/28 00:37:13;;;;;;;9.63;5.20;;;4.40;91.20;;;;;;5104768;27;20780;-77
2022/04/28 00:39:40;;;;;;;9.70;4.67;;;4.40;91.30;;;;;;5099423;28;20233;-77
2022/04/28 00:42:10;;;;;;;10.53;4.20;;;4.30;91.50;;;;;;5078028;28;20229;-77
2022/04/28 00:44:38;;;;;;;8.10;4.53;;;4.30;91.40;;;;;;5074541;28;20234;-76
2022/04/28 00:47:05;;;;;;;8.40;4.60;;;4.20;91.00;;;;;;5078456;28;20222;-77
2022/04/28 00:52:18;;;;;;;11.33;4.80;;;4.10;91.10;;;;;;5079125;28;20716;-77
2022/04/28 00:54:46;;;;;;;11.70;5.73;;;4.10;91.40;;;;;;5080285;28;20221;-77
2022/04/28 00:57:15;;;;;;;11.10;5.50;;;4.00;91.60;;;;;;5068796;28;20236;-77
2022/04/28 00:59:42;;;;;;;9.10;5.57;;;4.00;92.10;;;;;;5075330;28;20278;-77
2022/04/28 01:02:10;;;;;;;13.43;5.97;;;4.00;92.10;;;;;;5082247;28;20246;-77
2022/04/28 01:04:38;;;;;;;10.40;5.47;;;3.90;92.00;;;;;;5081314;28;20326;-77
2022/04/28 01:07:05;;;;;;;11.43;5.90;;;3.90;92.00;;;;;;5085165;28;20225;-77
2022/04/28 01:09:36;;;;;;;12.17;5.77;;;3.90;92.00;;;;;;5079871;28;20233;-76
2022/04/28 01:12:07;;;;;;;8.57;4.97;;;3.80;92.60;;;;;;5066388;28;20733;-76
2022/04/28 01:14:34;;;;;;;8.47;4.60;;;3.80;92.60;;;;;;5073945;28;20225;-76
2022/04/28 01:17:04;;;;;;;7.93;4.80;;;3.80;92.20;;;;;;5075334;28;20228;-77
2022/04/28 01:19:31;;;;;;;10.63;5.30;;;3.70;92.40;;;;;;5078230;28;20229;-77
2022/04/28 01:21:59;;;;;;;9.20;4.63;;;3.70;92.60;;;;;;5078039;28;20330;-76
2022/04/28 01:24:26;;;;;;;11.70;4.93;;;3.70;93.10;;;;;;5083146;28;20229;-76
2022/04/28 01:26:55;;;;;;;8.90;4.80;;;3.70;93.10;;;;;;5081917;28;20231;-77
2022/04/28 01:29:23;;;;;;;9.93;5.17;;;3.60;93.50;;;;;;5074685;28;20219;-77
2022/04/28 01:31:50;;;;;;;8.03;4.90;;;3.60;93.40;;;;;;5082745;28;20255;-77
2022/04/28 01:34:17;;;;;;;9.00;4.53;;;3.50;92.90;;;;;;5065821;28;20306;-76
2022/04/28 01:36:44;;;;;;;7.23;4.37;;;3.50;92.50;;;;;;5084035;28;20227;-76
2022/04/28 01:39:13;;;;;;;7.03;4.50;;;3.40;92.40;;;;;;5081170;28;20228;-77
2022/04/28 01:41:42;;;;;;;6.63;4.30;;;3.40;92.30;;;;;;5083619;28;20221;-77
2022/04/28 01:44:09;;;;;;;10.07;4.57;;;3.40;92.00;;;;;;5079247;28;20831;-76
2022/04/28 01:46:37;;;;;;;9.43;4.40;;;3.30;92.10;;;;;;5080523;28;20236;-77
2022/04/28 01:49:29;;;;;;;8.90;4.33;;;3.30;92.50;;;;;;5081952;28;20224;-76
2022/04/28 01:55:21;;;;;;;12.20;5.20;;;3.20;91.90;;;;;;5081616;28;20223;-76
2022/04/28 01:57:59;;;;;;;7.87;4.93;;;3.20;92.30;;;;;;5080616;28;20308;-77
2022/04/28 02:00:43;;;;;;;10.67;5.57;;;3.10;92.40;;;;;;5082200;28;20227;-76
2022/04/28 02:03:13;;;;;;;9.73;5.60;;;3.10;92.80;;;;;;5072215;28;20228;-76
2022/04/28 02:05:40;;;;;;;11.67;6.20;;;3.10;93.30;;;;;;5080736;28;20253;-76
2022/04/28 02:08:09;;;;;;;8.73;5.90;;;3.10;93.70;;;;;;5081235;28;20222;-76
2022/04/28 02:10:37;;;;;;;12.33;5.60;;;3.10;94.10;;;;;;5073078;28;20316;-76
2022/04/28 02:13:06;;;;;;;9.73;5.20;;;3.00;94.30;;;;;;5073602;28;20718;-76
2022/04/28 02:15:36;;;;;;;11.23;5.20;;;3.00;94.20;;;;;;5083515;28;20947;-76
2022/04/28 02:18:08;;;;;;;10.60;5.40;;;3.00;94.00;;;;;;5075465;28;20305;-75
2022/04/28 02:20:37;;;;;;;10.70;5.27;;;3.00;93.80;;;;;;5082505;28;20218;-76
2022/04/28 02:23:04;;;;;;;11.17;5.40;;;2.90;93.70;;;;;;5080853;28;20247;-76
2022/04/28 02:25:35;;;;;;;6.17;4.30;;;2.90;93.70;;;;;;5067854;28;20236;-76
2022/04/28 02:28:03;;;;;;;8.47;5.07;;;2.90;93.80;;;;;;5079337;28;20273;-76
2022/04/28 02:30:30;;;;;;;8.10;5.33;;;2.80;93.70;;;;;;5078873;28;20238;-76
2022/04/28 02:33:12;;;;;;;12.00;5.40;;;2.80;93.40;;;;;;5079749;28;20211;-77
2022/04/28 02:35:47;;;;;;;8.83;5.57;;;2.80;93.80;;;;;;5073349;28;20281;-76
2022/04/28 02:38:14;;;;;;;11.07;5.63;;;2.70;94.30;;;;;;5073277;28;20228;-77
2022/04/28 02:40:41;;;;;;;8.63;5.57;;;2.70;94.40;;;;;;5076995;28;20239;-77
2022/04/28 02:43:09;;;;;;;9.50;5.93;;;2.70;94.70;;;;;;5081967;28;20219;-77
2022/04/28 02:45:36;;;;;;;11.87;6.23;;;2.60;95.40;;;;;;5074479;28;20216;-77
2022/04/28 02:48:03;;;;;;;8.80;6.00;;;2.60;95.10;;;;;;5075517;28;20247;-77
2022/04/28 02:50:30;;;;;;;11.97;5.97;;;2.60;95.30;;;;;;5079120;28;20232;-77
2022/04/28 02:52:57;;;;;;;7.80;5.23;;;2.60;95.40;;;;;;5079879;28;20227;-78
2022/04/28 02:55:23;;;;;;;10.33;5.47;;;2.60;95.20;;;;;;5076724;28;20251;-77
2022/04/28 02:57:50;;;;;;;13.13;6.07;;;2.60;94.80;;;;;;5078048;28;20236;-77
2022/04/28 03:00:18;;;;;;;11.70;5.87;;;2.50;94.70;;;;;;5085103;28;20222;-77
2022/04/28 03:02:55;;;;;;;7.87;5.53;;;2.50;95.20;;;;;;5100094;28;20301;-77
2022/04/28 03:05:22;;;;;;;11.50;6.40;;;2.50;95.20;;;;;;5085704;28;20279;-76
2022/04/28 03:10:51;;;;;;;15.40;6.17;;;2.50;95.60;;;;;;5076320;28;20248;-76
2022/04/28 03:13:22;;;;;;;13.97;6.27;;;2.50;95.30;;;;;;5082604;28;20302;-76
2022/04/28 03:15:52;;;;;;;13.50;6.20;;;2.40;95.10;;;;;;5078784;28;20322;-76
2022/04/28 03:18:24;;;;;;;10.57;6.10;;;2.40;95.10;;;;;;5083680;28;20266;-76
2022/04/28 03:20:51;;;;;;;8.87;5.80;;;2.40;95.10;;;;;;5078905;28;20712;-76
2022/04/28 03:23:18;;;;;;;9.17;5.30;;;2.40;95.30;;;;;;5074143;28;20345;-76
2022/04/28 03:25:45;;;;;;;9.97;5.47;;;2.30;95.20;;;;;;5083237;28;20318;-75
2022/04/28 03:28:12;;;;;;;8.67;5.10;;;2.30;94.90;;;;;;5069932;28;20521;-76
2022/04/28 03:30:40;;;;;;;8.03;5.30;;;2.30;94.80;;;;;;5074899;28;20959;-76
2022/04/28 03:33:13;;;;;;;7.43;5.53;;;2.30;94.90;;;;;;5081206;28;20247;-77
2022/04/28 03:35:40;;;;;;;8.07;5.47;;;2.20;95.10;;;;;;5078199;28;20227;-76
2022/04/28 03:38:12;;;;;;;7.87;5.07;;;2.20;95.10;;;;;;5081013;28;20223;-77
2022/04/28 03:40:39;;;;;;;8.80;6.20;;;2.10;95.20;;;;;;5083752;28;20231;-77
2022/04/28 03:43:06;;;;;;;12.03;6.03;;;2.20;95.30;;;;;;5066710;28;20235;-78
2022/04/28 03:45:33;;;;;;;7.83;5.80;;;2.10;95.50;;;;;;5072092;28;20245;-78
2022/04/28 03:48:03;;;;;;;7.83;5.77;;;2.10;95.80;;;;;;5081544;28;20220;-77
2022/04/28 03:50:32;;;;;;;9.33;5.50;;;2.10;95.80;;;;;;5091710;28;20234;-77
2022/04/28 03:52:59;;;;;;;9.93;6.03;;;2.10;95.70;;;;;;5071514;28;20227;-76
2022/04/28 03:55:26;;;;;;;11.57;6.40;;;2.00;95.50;;;;;;5085533;28;20250;-76
2022/04/28 03:57:53;;;;;;;15.37;7.10;;;2.00;95.20;;;;;;5081576;28;21020;-75
2022/04/28 04:00:20;;;;;;;15.33;7.23;;;2.00;95.20;;;;;;5084922;28;20573;-77
2022/04/28 04:02:54;;;;;;;16.73;7.47;;;2.00;95.60;;;;;;5085280;28;20308;-78
2022/04/28 04:05:21;;;;;;;15.80;7.43;;;1.90;95.60;;;;;;5079487;28;20317;-76
2022/04/28 04:07:49;;;;;;;10.93;7.37;;;2.00;95.60;;;;;;5082386;28;20301;-77
2022/04/28 04:10:29;;;;;;;10.83;7.80;;;1.90;95.90;;;;;;5075673;28;20237;-77
2022/04/28 04:13:00;;;;;;;11.20;7.67;;;1.90;95.70;;;;;;5080299;28;20272;-76
2022/04/28 04:15:26;;;;;;;13.70;7.70;;;1.90;95.70;;;;;;5087023;28;20601;-77
2022/04/28 04:17:56;;;;;;;14.03;7.50;;;1.90;95.60;;;;;;5086374;28;20315;-77
2022/04/28 04:20:27;;;;;;;13.23;7.47;;;1.90;95.70;;;;;;5076242;28;20227;-76
2022/04/28 04:22:55;;;;;;;17.90;8.40;;;1.90;95.60;;;;;;5068980;28;20233;-75
2022/04/28 04:25:23;;;;;;;13.07;8.23;;;1.90;96.10;;;;;;5071599;28;20284;-74
2022/04/28 04:27:53;;;;;;;12.07;7.40;;;2.00;96.00;;;;;;5076213;28;20273;-78
2022/04/28 04:34:06;;;;;;;18.30;9.57;;;2.10;95.70;;;;;;5079472;28;20279;-76
2022/04/28 04:36:33;;;;;;;13.83;8.53;;;2.20;95.60;;;;;;5076857;28;20872;-78
2022/04/28 04:39:02;;;;;;;21.30;11.30;;;2.20;96.00;;;;;;5074793;28;20298;-76
2022/04/28 04:41:34;;;;;;;20.93;12.43;;;2.30;96.40;;;;;;5074648;28;20924;-76
2022/04/28 04:44:01;;;;;;;28.80;17.13;;;2.40;96.60;;;;;;5071899;28;20345;-76
2022/04/28 04:46:28;;;;;;;26.97;14.37;;;2.50;96.90;;;;;;5080184;28;20283;-75
2022/04/28 04:49:15;;;;;;;24.63;13.00;;;2.50;96.90;;;;;;5076443;28;20246;-75
2022/04/28 04:51:43;;;;;;;23.60;12.83;;;2.70;97.10;;;;;;5074089;28;20245;-75
2022/04/28 04:54:22;;;;;;;19.87;12.23;;;2.70;97.10;;;;;;5074689;28;20236;-77
2022/04/28 04:56:51;;;;;;;26.40;13.53;;;2.80;97.10;;;;;;5073791;28;20222;-76
2022/04/28 04:59:19;;;;;;;20.37;12.20;;;2.90;97.10;;;;;;5071269;28;20230;-76
2022/04/28 05:01:46;;;;;;;18.97;11.93;;;2.90;97.10;;;;;;5075607;28;20223;-75
2022/04/28 05:04:31;;;;;;;19.20;12.97;;;3.00;97.20;;;;;;5074316;28;20299;-77
2022/04/28 05:07:17;;;;;;;24.37;13.77;;;3.10;96.80;;;;;;5075281;28;20227;-75
2022/04/28 05:09:45;;;;;;;25.07;13.60;;;3.20;96.70;;;;;;5090921;28;20626;-76
2022/04/28 05:12:12;;;;;;;24.83;14.60;;;3.30;97.00;;;;;;5074477;28;20592;-78
2022/04/28 05:14:51;;;;;;;23.13;13.63;;;3.30;97.00;;;;;;5071370;28;20246;-76
2022/04/28 05:17:19;;;;;;;25.90;13.47;;;3.40;97.00;;;;;;5067756;28;20320;-76
2022/04/28 05:20:06;;;;;;;21.83;13.43;;;3.50;97.10;;;;;;5069134;28;20230;-76
2022/04/28 05:22:52;;;;;;;23.60;13.97;;;3.60;97.20;;;;;;5074576;28;20229;-76
2022/04/28 05:25:38;;;;;;;22.93;14.10;;;3.80;97.30;;;;;;5079296;28;20291;-75
2022/04/28 05:28:27;;;;;;;22.67;12.67;;;3.90;97.40;;;;;;5082932;28;20953;-75
2022/04/28 05:31:12;;;;;;;21.50;12.00;;;4.00;97.40;;;;;;5078306;28;20845;-75
2022/04/28 05:34:05;;;;;;;21.70;13.00;;;4.10;97.20;;;;;;5071885;28;20269;-75
2022/04/28 05:36:54;;;;;;;19.23;11.83;;;4.20;97.30;;;;;;5098032;28;20339;-75
2022/04/28 05:39:21;;;;;;;21.40;12.63;;;4.30;97.30;;;;;;5077994;28;20233;-76
2022/04/28 05:41:49;;;;;;;23.80;13.67;;;4.40;97.20;;;;;;5081765;28;20264;-75
2022/04/28 05:47:01;;;;;;;18.13;12.03;;;4.60;97.30;;;;;;5081407;28;20265;-76
2022/04/28 05:49:28;;;;;;;20.30;12.23;;;4.70;97.20;;;;;;5075171;28;20242;-76
2022/04/28 05:51:55;;;;;;;23.30;12.27;;;4.80;97.10;;;;;;5077541;28;20283;-76
2022/04/28 05:54:26;;;;;;;22.90;13.27;;;4.90;97.10;;;;;;5077693;28;20229;-76
2022/04/28 05:56:54;;;;;;;20.17;12.63;;;5.10;97.20;;;;;;5076923;28;20329;-76
2022/04/28 05:59:21;;;;;;;21.33;12.80;;;5.20;97.40;;;;;;5080686;28;20230;-76
2022/04/28 06:01:47;;;;;;;24.30;13.87;;;5.30;97.30;;;;;;5076494;28;20313;-76
2022/04/28 06:04:25;;;;;;;19.93;12.10;;;5.50;97.10;;;;;;5075832;28;20234;-76
2022/04/28 06:06:52;;;;;;;20.13;12.23;;;5.60;96.80;;;;;;5080638;28;20878;-76
2022/04/28 06:09:25;;;;;;;22.37;11.80;;;5.70;96.50;;;;;;5076990;28;20245;-78
2022/04/28 06:11:54;;;;;;;20.93;12.53;;;5.90;96.40;;;;;;5080917;28;20234;-76
2022/04/28 06:14:21;;;;;;;19.17;11.00;;;5.90;96.30;;;;;;5079849;28;20669;-75
2022/04/28 06:17:14;;;;;;;17.63;11.70;;;6.10;96.30;;;;;;5081195;28;20757;-76
2022/04/28 06:19:40;;;;;;;17.77;12.23;;;6.20;96.40;;;;;;5075202;28;20233;-76
2022/04/28 06:22:07;;;;;;;17.60;9.77;;;6.40;96.50;;;;;;5081166;28;20841;-76
2022/04/28 06:24:42;;;;;;;17.07;9.13;;;6.70;96.40;;;;;;5078073;28;20233;-76
2022/04/28 06:27:11;;;;;;;16.60;8.80;;;6.90;96.00;;;;;;5077319;28;20309;-76
2022/04/28 06:29:39;;;;;;;14.43;9.67;;;7.20;95.60;;;;;;5085148;28;20235;-76
2022/04/28 06:32:09;;;;;;;12.60;8.37;;;7.50;95.40;;;;;;5084499;28;20249;-76
2022/04/28 06:34:59;;;;;;;11.83;8.03;;;7.70;95.20;;;;;;5074406;28;20730;-76
2022/04/28 06:37:31;;;;;;;14.77;7.83;;;8.10;95.20;;;;;;5081849;28;20226;-76
2022/04/28 06:40:02;;;;;;;13.73;6.93;;;8.40;94.80;;;;;;5084541;28;20226;-78
2022/04/28 06:42:31;;;;;;;11.23;6.60;;;8.70;94.30;;;;;;5084409;28;20310;-79
2022/04/28 06:45:17;;;;;;;10.67;6.37;;;9.00;93.60;;;;;;5081294;28;20238;-79
2022/04/28 06:48:02;;;;;;;8.27;6.23;;;9.20;93.20;;;;;;5076597;28;21030;-76
2022/04/28 06:50:41;;;;;;;8.93;6.20;;;9.30;92.80;;;;;;5079064;28;20227;-76
2022/04/28 06:53:23;;;;;;;9.77;5.80;;;9.40;92.70;;;;;;5085685;28;20284;-76
2022/04/28 06:55:54;;;;;;;11.80;5.50;;;9.50;92.40;;;;;;5084001;28;20276;-76
2022/04/28 06:58:23;;;;;;;13.90;5.33;;;9.50;92.00;;;;;;5083686;28;20622;-76
2022/04/28 07:00:50;;;;;;;12.07;5.33;;;9.50;92.00;;;;;;5083754;28;20255;-76
2022/04/28 07:03:19;;;;;;;9.00;4.60;;;9.60;92.00;;;;;;5078640;28;20231;-76
2022/04/28 07:05:47;;;;;;;10.07;5.23;;;9.60;91.90;;;;;;5082129;28;20321;-76
2022/04/28 07:08:13;;;;;;;10.87;4.90;;;9.70;92.00;;;;;;5083710;28;20363;-76
2022/04/28 07:10:45;;;;;;;9.97;3.40;;;9.90;92.00;;;;;;5078132;28;20324;-76
2022/04/28 07:13:12;;;;;;;8.53;3.73;;;10.20;92.10;;;;;;5076641;28;20230;-78
2022/04/28 07:15:59;;;;;;;8.30;4.20;;;10.60;92.20;;;;;;5085310;28;20785;-76
2022/04/28 07:18:44;;;;;;;8.77;4.10;;;11.20;91.30;;;;;;5083280;28;20234;-76
2022/04/28 07:21:11;;;;;;;6.87;3.60;;;11.80;91.30;;;;;;5082987;28;20228;-76
2022/04/28 07:23:39;;;;;;;8.33;3.40;;;12.50;90.60;;;;;;5083273;28;20233;-77
2022/04/28 07:26:08;;;;;;;7.10;3.10;;;13.20;88.50;;;;;;5080250;28;20658;-77
2022/04/28 07:28:36;;;;;;;7.53;3.30;;;13.80;87.20;;;;;;5080754;28;20234;-76
2022/04/28 07:31:04;;;;;;;8.20;3.57;;;14.40;85.80;;;;;;5085510;28;20773;-76
2022/04/28 07:33:50;;;;;;;7.00;3.33;;;15.00;82.90;;;;;;5082609;28;20225;-76
2022/04/28 07:36:35;;;;;;;8.35;3.03;;;15.60;82.20;;;;;;5084777;28;20234;-76
2022/04/28 07:39:20;;;;;;;5.47;2.70;;;16.30;80.00;;;;;;5083666;28;20343;-76
2022/04/28 07:42:08;;;;;;;7.13;3.30;;;16.90;77.60;;;;;;5081018;28;20305;-77
2022/04/28 07:44:38;;;;;;;8.65;2.97;;;17.30;76.10;;;;;;5083185;28;20254;-77
2022/04/28 07:47:08;;;;;;;7.15;2.70;;;17.60;73.00;;;;;;5070016;28;20302;-76
2022/04/28 07:49:41;;;;;;;7.50;2.67;;;18.00;72.00;;;;;;5083715;28;20222;-77
2022/04/28 07:52:09;;;;;;;5.85;2.85;;;18.40;72.00;;;;;;5073261;28;20246;-77
2022/04/28 07:54:37;;;;;;;7.18;3.10;;;18.90;70.40;;;;;;5077877;28;20718;-77
2022/04/28 07:57:04;;;;;;;5.90;3.40;;;19.30;68.80;;;;;;5075654;28;20228;-77
2022/04/28 07:59:31;;;;;;;5.43;2.90;;;19.60;67.70;;;;;;5079571;28;20317;-77
2022/04/28 08:02:14;;;;;;;6.50;3.05;;;19.90;65.60;;;;;;5070329;28;20230;-77
2022/04/28 08:04:43;;;;;;;6.82;3.45;;;20.20;63.80;;;;;;5081854;28;20253;-77
2022/04/28 08:07:12;;;;;;;13.70;3.45;;;20.50;64.10;;;;;;5082693;28;20237;-77
2022/04/28 08:09:42;;;;;;;8.95;3.72;;;20.80;63.20;;;;;;5081558;28;20678;-77
2022/04/28 08:12:13;;;;;;;4.78;2.88;;;21.20;62.00;;;;;;5082024;28;20222;-77
2022/04/28 08:14:40;;;;;;;6.15;3.38;;;21.50;61.50;;;;;;5081833;28;20232;-77
2022/04/28 08:17:08;;;;;;;6.78;3.15;;;21.80;60.00;;;;;;5077402;28;20227;-77
2022/04/28 08:19:36;;;;;;;5.65;3.60;;;22.10;59.40;;;;;;5084591;28;20868;-77
2022/04/28 08:22:07;;;;;;;8.57;3.60;;;22.50;58.00;;;;;;5082254;28;20303;-77
2022/04/28 08:24:36;;;;;;;7.97;3.67;;;22.80;57.40;;;;;;5076353;28;20226;-77
2022/04/28 08:27:04;;;;;;;5.50;3.38;;;23.00;55.80;;;;;;5083088;28;20738;-77
2022/04/28 08:29:31;;;;;;;6.05;3.22;;;23.20;55.90;;;;;;5082400;28;20227;-77
2022/04/28 08:32:07;;;;;;;5.78;3.95;;;23.40;55.10;;;;;;5081354;28;20222;-77
2022/04/28 08:34:34;;;;;;;5.30;3.45;;;23.50;53.70;;;;;;5082313;28;20253;-77
2022/04/28 08:37:03;;;;;;;6.85;4.15;;;23.70;54.30;;;;;;5081665;28;20438;-77
2022/04/28 08:39:30;;;;;;;10.13;3.85;;;23.80;52.30;;;;;;5071694;28;20255;-77
2022/04/28 08:41:59;;;;;;;6.68;3.45;;;23.90;52.10;;;;;;5082456;28;20223;-77
2022/04/28 08:44:46;;;;;;;6.50;3.90;;;23.90;52.30;;;;;;5081084;28;20235;-77
2022/04/28 08:47:33;;;;;;;9.63;4.13;;;24.10;52.00;;;;;;5078904;28;20242;-77
2022/04/28 08:50:22;;;;;;;8.00;3.88;;;24.10;51.50;;;;;;5079803;28;20226;-77
2022/04/28 08:53:06;;;;;;;7.68;3.70;;;24.20;51.30;;;;;;5081462;28;20219;-77
2022/04/28 08:55:36;;;;;;;6.07;3.70;;;24.30;51.10;;;;;;5081547;28;20231;-77
2022/04/28 08:58:03;;;;;;;8.32;3.63;;;24.50;51.30;;;;;;5081225;28;20237;-77
2022/04/28 09:00:38;;;;;;;5.13;3.90;;;24.70;50.50;;;;;;5081950;28;20317;-77
2022/04/28 09:03:31;;;;;;;7.57;4.07;;;24.70;49.30;;;;;;5082351;28;20231;-77
2022/04/28 09:06:22;;;;;;;7.22;3.80;;;24.80;49.30;;;;;;5083204;28;20372;-77
2022/04/28 09:09:10;;;;;;;6.78;4.22;;;24.90;49.30;;;;;;5076388;28;20369;-77
2022/04/28 09:11:58;;;;;;;6.75;4.25;;;24.90;48.80;;;;;;5083490;28;20229;-77
2022/04/28 09:14:44;;;;;;;7.65;4.00;;;24.90;48.40;;;;;;5082371;28;20241;-77
2022/04/28 09:17:15;;;;;;;5.88;3.53;;;24.90;49.70;;;;;;5078552;28;20225;-77
2022/04/28 09:19:42;;;;;;;6.13;3.80;;;24.80;48.50;;;;;;5081668;28;20773;-77
2022/04/28 09:22:24;;;;;;;7.85;3.75;;;24.80;48.40;;;;;;5080400;28;20756;-78
2022/04/28 09:24:59;;;;;;;4.68;3.42;;;24.80;47.80;;;;;;5071852;28;20726;-77
2022/04/28 09:27:27;;;;;;;7.18;4.40;;;24.80;47.50;;;;;;5080676;28;20266;-77
2022/04/28 09:29:56;;;;;;;9.02;4.40;;;24.90;48.10;;;;;;5081581;28;20300;-78
2022/04/28 09:32:26;;;;;;;6.93;4.85;;;25.00;47.90;;;;;;5079209;28;21021;-77
2022/04/28 09:35:15;;;;;;;8.45;4.63;;;25.20;46.70;;;;;;5074703;28;20264;-77
2022/04/28 09:37:50;;;;;;;6.95;4.55;;;25.30;47.10;;;;;;5079422;28;20230;-78
2022/04/28 09:43:04;;;;;;;7.20;4.25;;;25.40;46.50;;;;;;5081214;28;20586;-77
2022/04/28 09:45:39;;;;;;;5.85;4.07;;;25.50;46.70;;;;;;5080556;28;20714;-78
2022/04/28 09:48:07;;;;;;;4.63;4.03;;;25.50;46.60;;;;;;5081421;28;20313;-78
2022/04/28 09:50:40;;;;;;;8.52;4.18;;;25.60;46.60;;;;;;5080495;28;20226;-77
2022/04/28 09:53:26;;;;;;;7.13;4.60;;;25.70;46.50;;;;;;5076596;28;20238;-78
2022/04/28 09:56:17;;;;;;;7.35;4.32;;;25.80;46.40;;;;;;5078451;28;20222;-78
2022/04/28 09:58:51;;;;;;;5.10;4.40;;;25.90;46.30;;;;;;5081486;28;20237;-78
2022/04/28 10:01:19;;;;;;;6.78;4.13;;;26.00;46.20;;;;;;5080479;28;20598;-78
2022/04/28 10:03:46;;;;;;;8.98;4.80;;;26.10;45.90;;;;;;5079547;28;20783;-78
2022/04/28 10:06:18;;;;;;;5.95;4.65;;;26.20;45.20;;;;;;5081692;28;20457;-78
2022/04/28 10:09:09;;;;;;;6.70;4.68;;;26.30;45.20;;;;;;5078667;28;20707;-78
2022/04/28 10:11:38;;;;;;;7.20;4.82;;;26.30;45.10;;;;;;5080999;28;20420;-78
2022/04/28 10:14:09;;;;;;;7.18;5.07;;;26.30;44.90;;;;;;5080631;28;20234;-78
2022/04/28 10:16:38;;;;;;;6.88;4.68;;;26.40;44.60;;;;;;5074788;28;20245;-78
2022/04/28 10:19:11;;;;;;;9.05;4.90;;;26.50;44.80;;;;;;5081823;28;20888;-78
2022/04/28 10:21:42;;;;;;;9.05;4.97;;;26.50;44.00;;;;;;5078106;28;20706;-78
2022/04/28 10:32:58;;;;;;;7.43;4.65;;;26.70;43.50;;;;;;5078077;28;20222;-78
2022/04/28 10:35:43;;;;;;;7.07;4.88;;;26.60;42.70;;;;;;5082924;28;20223;-78
2022/04/28 10:38:15;;;;;;;8.27;5.47;;;26.50;42.50;;;;;;5075104;28;20279;-78
2022/04/28 10:40:45;;;;;;;6.45;5.18;;;26.40;43.10;;;;;;5083335;28;20237;-79
2022/04/28 10:43:24;;;;;;;6.30;4.90;;;26.40;42.80;;;;;;5080849;28;20227;-78
2022/04/28 10:45:53;;;;;;;6.28;4.65;;;26.40;42.70;;;;;;5071167;28;20304;-78
2022/04/28 10:48:29;;;;;;;8.13;5.57;;;26.40;42.90;;;;;;5076204;28;20782;-78
2022/04/28 10:51:10;;;;;;;10.23;5.20;;;26.40;42.80;;;;;;5079130;28;20230;-78
2022/04/28 10:53:55;;;;;;;6.82;5.07;;;26.30;43.00;;;;;;5076733;28;20319;-78
2022/04/28 10:56:22;;;;;;;7.95;5.50;;;26.30;43.30;;;;;;5080820;28;20226;-78
2022/04/28 10:58:50;;;;;;;6.80;4.85;;;26.30;43.10;;;;;;5080824;28;20561;-78
2022/04/28 11:01:27;;;;;;;7.00;4.88;;;26.20;42.90;;;;;;5080389;28;20241;-78
2022/04/28 11:03:56;;;;;;;6.95;5.20;;;26.20;42.80;;;;;;5080537;28;20222;-78
2022/04/28 11:06:27;;;;;;;6.13;4.97;;;26.20;43.00;;;;;;5079107;28;20250;-78
2022/04/28 11:08:55;;;;;;;7.55;5.38;;;26.20;42.70;;;;;;5080682;28;20733;-78
2022/04/28 11:11:25;;;;;;;6.45;5.15;;;26.10;42.40;;;;;;5081299;28;20234;-78
2022/04/28 11:13:58;;;;;;;7.85;4.78;;;25.90;42.50;;;;;;5085156;28;21157;-78
2022/04/28 11:16:26;;;;;;;6.18;4.38;;;25.80;42.40;;;;;;5078033;28;20237;-78
2022/04/28 11:18:54;;;;;;;6.13;4.85;;;25.70;42.90;;;;;;5081199;28;20240;-78
2022/04/28 11:21:22;;;;;;;6.78;5.28;;;25.70;42.90;;;;;;5076777;28;20316;-78
2022/04/28 11:23:51;;;;;;;8.23;4.85;;;25.60;42.60;;;;;;5079349;28;20226;-78
2022/04/28 11:26:37;;;;;;;10.77;5.68;;;25.60;43.10;;;;;;5076739;28;20282;-79
2022/04/28 11:29:39;;;;;;;7.10;5.05;;;25.60;43.00;;;;;;5079035;28;20653;-78
2022/04/28 11:32:09;;;;;;;10.40;4.68;;;25.70;43.00;;;;;;5082175;28;20522;-78
2022/04/28 11:34:35;;;;;;;6.55;4.45;;;25.80;42.80;;;;;;5075578;28;20231;-78
2022/04/28 11:37:13;;;;;;;6.20;4.60;;;25.80;42.30;;;;;;5070592;28;20279;-78
2022/04/28 11:39:41;;;;;;;9.20;4.75;;;25.70;41.40;;;;;;5077369;28;20219;-78
2022/04/28 11:42:09;;;;;;;7.38;4.65;;;25.40;41.50;;;;;;5086048;28;20707;-78
2022/04/28 11:44:45;;;;;;;6.55;4.25;;;25.30;41.80;;;;;;5079606;28;20262;-78
2022/04/28 11:47:11;;;;;;;5.70;4.55;;;25.10;42.00;;;;;;5086718;28;20585;-78
2022/04/28 11:49:39;;;;;;;6.18;4.57;;;25.10;42.10;;;;;;5078659;28;20226;-78
2022/04/28 11:52:18;;;;;;;5.28;4.07;;;25.10;41.90;;;;;;5081897;28;20351;-78
2022/04/28 11:54:45;;;;;;;6.78;4.20;;;25.20;41.80;;;;;;5079559;28;20295;-78
2022/04/28 11:57:12;;;;;;;5.07;4.50;;;25.40;42.40;;;;;;5085609;28;20233;-78
2022/04/28 11:59:41;;;;;;;6.68;4.43;;;25.60;42.30;;;;;;5073805;28;20231;-79
2022/04/28 12:02:24;;;;;;;5.60;4.20;;;25.80;42.20;;;;;;5075218;28;20265;-79
2022/04/28 12:04:51;;;;;;;6.72;3.58;;;26.10;41.20;;;;;;5076738;28;20676;-78
2022/04/28 12:07:21;;;;;;;6.85;3.80;;;26.40;41.00;;;;;;5078723;28;20251;-78
2022/04/28 12:15:21;;;;;;;7.18;4.22;;;26.10;40.10;;;;;;5079746;28;20233;-79
2022/04/28 12:20:53;;;;;;;6.38;4.15;;;25.90;40.10;;;;;;5032528;28;20248;-79
2022/04/28 12:23:30;;;;;;;5.20;4.38;;;25.90;41.00;;;;;;5071140;28;20551;-78
2022/04/28 12:26:00;;;;;;;5.75;4.53;;;25.90;40.10;;;;;;5078766;28;20693;-79
2022/04/28 12:28:38;;;;;;;7.65;4.68;;;25.70;40.20;;;;;;5081640;28;20309;-79
2022/04/28 12:31:07;;;;;;;6.00;4.47;;;25.30;40.20;;;;;;5078665;28;20333;-78
2022/04/28 12:33:34;;;;;;;7.57;4.53;;;24.80;40.60;;;;;;5081890;28;20230;-78
2022/04/28 12:36:02;;;;;;;4.75;4.13;;;24.20;41.20;;;;;;5086105;28;20344;-78
2022/04/28 12:38:30;;;;;;;7.63;4.70;;;23.90;42.00;;;;;;5078081;28;20318;-79
2022/04/28 12:40:57;;;;;;;7.95;4.47;;;23.50;42.00;;;;;;5076156;28;20234;-79
2022/04/28 12:43:38;;;;;;;6.03;4.43;;;23.30;42.50;;;;;;5079413;28;20272;-78
2022/04/28 12:46:06;;;;;;;8.63;4.38;;;23.00;43.50;;;;;;5078769;28;20661;-78
2022/04/28 12:48:35;;;;;;;6.43;4.70;;;22.80;43.80;;;;;;5081769;28;20219;-78
2022/04/28 12:51:13;;;;;;;9.52;5.07;;;22.80;44.10;;;;;;5083653;28;20585;-78
2022/04/28 12:53:41;;;;;;;6.03;4.68;;;22.80;44.50;;;;;;5081556;28;20226;-78
2022/04/28 12:56:09;;;;;;;5.85;4.60;;;23.00;44.50;;;;;;5079911;28;20719;-78
2022/04/28 12:58:37;;;;;;;6.63;4.40;;;23.10;44.30;;;;;;5081282;28;20250;-78
2022/04/28 13:01:09;;;;;;;5.18;4.07;;;23.30;43.90;;;;;;5076130;28;20760;-78
2022/04/28 13:03:36;;;;;;;7.85;4.80;;;23.50;43.50;;;;;;5081465;28;20310;-79
2022/04/28 13:06:04;;;;;;;8.32;4.55;;;23.60;43.50;;;;;;5080293;28;20302;-78
2022/04/28 13:08:31;;;;;;;4.60;4.20;;;23.80;43.40;;;;;;5076807;28;20222;-79
2022/04/28 13:10:58;;;;;;;8.43;4.55;;;23.90;43.00;;;;;;5077405;28;20256;-78
2022/04/28 13:13:25;;;;;;;7.63;5.25;;;24.00;43.10;;;;;;5072176;28;20233;-78
2022/04/28 13:15:52;;;;;;;6.30;5.07;;;24.00;43.40;;;;;;5075320;28;20318;-78
2022/04/28 13:18:20;;;;;;;5.82;4.60;;;24.00;42.60;;;;;;5077901;28;20239;-78
2022/04/28 13:20:47;;;;;;;7.80;4.75;;;23.80;42.70;;;;;;5081987;28;20238;-79
2022/04/28 13:23:13;;;;;;;7.43;5.03;;;23.50;43.40;;;;;;5076428;28;20330;-78
2022/04/28 13:25:40;;;;;;;7.15;4.78;;;23.40;43.40;;;;;;5074248;28;20340;-80
2022/04/28 13:28:07;;;;;;;6.03;4.60;;;23.30;43.50;;;;;;5084159;28;20723;-79
2022/04/28 13:30:34;;;;;;;6.90;4.60;;;23.30;43.60;;;;;;5082598;28;20867;-80
2022/04/28 13:33:01;;;;;;;8.63;5.07;;;23.40;43.80;;;;;;5079327;28;20253;-80
2022/04/28 13:35:30;;;;;;;7.80;5.30;;;23.50;43.60;;;;;;5079279;28;20302;-81
2022/04/28 13:37:56;;;;;;;4.97;4.35;;;23.50;43.70;;;;;;5085987;28;20226;-80
2022/04/28 13:40:23;;;;;;;6.13;4.60;;;23.40;43.10;;;;;;5079507;28;20333;-80
2022/04/28 13:42:50;;;;;;;7.80;5.20;;;23.30;43.00;;;;;;5079982;28;20405;-81
2022/04/28 13:45:17;;;;;;;6.70;4.50;;;23.20;43.00;;;;;;5072404;28;20227;-79